Terminal Aerodrome Forecast
Issued by NWS

Home | Current Version | Previous Version | Text Only | Print | Product List | Glossary On
Versions: 1 2 3 4 5 6 7 8 9 10 11 12 13 14 15 16 17 18 19 20 21 22 23 24 25 26
000
FTPA31 PHFO 041900 AAA
TAFKOA
TAF AMD
PHKO 041942Z 0420/0518 35012G18KT P6SM -RA VCTS SCT015CB OVC035
      TEMPO 0420/0422 -TSRA BKN015CB
     FM050600 02013KT P6SM VCSH BKN050 BKN100=

USA.gov is the U.S. government's official web portal to all federal, state and local government web resources and services.